Athelstane, Wisconsin
Current Conditions -  °F | °C
As of 9:54 PM on Thursday 27 Nov 2014 (Local Time) from KIMT Reporting Station
Clear Clear  
Wind Chill: -21°   Ceiling: Unl
Heat Index: -21°   Visibility: 10mi
Dew Point: -23°   Wind: 0mph
Humidity: 80%   Direction: NA
Pressure: 30.28"   Gusts: NA
Location:  45.42°N, 88.1°W
Report Text: KIMT 280354Z AUTO 00000KT 10SM CLR M21/M23 A3028 RMK AO2 SLP289 I1000 T12061233
Loading
Personal Weather Stations






























Interactive Weather Map New forecast layout! Learn more

10-Day Weather Forecast

Advertisements
Track Severe Weather on mobile